sensor_id;sensor_type;location;lat;lon;timestamp;temperature;humidity
38428;DHT22;24211;49.980;19.776;2022-09-13T00:01:09;13.40;99.90
38428;DHT22;24211;49.980;19.776;2022-09-13T00:03:41;13.40;99.90
38428;DHT22;24211;49.980;19.776;2022-09-13T00:06:15;13.30;99.90
38428;DHT22;24211;49.980;19.776;2022-09-13T00:08:45;13.30;99.90
38428;DHT22;24211;49.980;19.776;2022-09-13T00:11:20;13.30;99.90
38428;DHT22;24211;49.980;19.776;2022-09-13T00:13:55;13.20;99.90
38428;DHT22;24211;49.980;19.776;2022-09-13T00:16:26;13.20;99.90
38428;DHT22;24211;49.980;19.776;2022-09-13T00:18:55;13.20;99.90
38428;DHT22;24211;49.980;19.776;2022-09-13T00:21:23;13.10;99.90
38428;DHT22;24211;49.980;19.776;2022-09-13T00:23:52;13.10;99.90
38428;DHT22;24211;49.980;19.776;2022-09-13T00:26:24;13.10;99.90
38428;DHT22;24211;49.980;19.776;2022-09-13T00:28:55;13.10;99.90
38428;DHT22;24211;49.980;19.776;2022-09-13T00:31:26;13.00;99.90
38428;DHT22;24211;49.980;19.776;2022-09-13T00:33:57;13.00;99.90
38428;DHT22;24211;49.980;19.776;2022-09-13T00:36:27;13.00;99.90
38428;DHT22;24211;49.980;19.776;2022-09-13T00:38:55;12.90;99.90
38428;DHT22;24211;49.980;19.776;2022-09-13T00:41:23;12.90;99.90
38428;DHT22;24211;49.980;19.776;2022-09-13T00:43:55;12.90;99.90
38428;DHT22;24211;49.980;19.776;2022-09-13T00:49:20;12.80;99.90
38428;DHT22;24211;49.980;19.776;2022-09-13T00:52:00;12.70;99.90
38428;DHT22;24211;49.980;19.776;2022-09-13T00:54:39;12.70;99.90
38428;DHT22;24211;49.980;19.776;2022-09-13T00:57:11;12.70;99.90
38428;DHT22;24211;49.980;19.776;2022-09-13T01:00:04;12.60;99.90
38428;DHT22;24211;49.980;19.776;2022-09-13T01:02:40;12.60;99.90
38428;DHT22;24211;49.980;19.776;2022-09-13T01:05:13;12.60;99.90
38428;DHT22;24211;49.980;19.776;2022-09-13T01:07:43;12.50;99.90
38428;DHT22;24211;49.980;19.776;2022-09-13T01:10:10;12.50;99.90
38428;DHT22;24211;49.980;19.776;2022-09-13T01:13:00;12.50;99.90
38428;DHT22;24211;49.980;19.776;2022-09-13T01:15:39;12.40;99.90
38428;DHT22;24211;49.980;19.776;2022-09-13T01:18:07;12.40;99.90
38428;DHT22;24211;49.980;19.776;2022-09-13T01:20:47;12.40;99.90
38428;DHT22;24211;49.980;19.776;2022-09-13T01:29:33;12.20;99.90
38428;DHT22;24211;49.980;19.776;2022-09-13T01:35:27;12.10;99.90
38428;DHT22;24211;49.980;19.776;2022-09-13T01:44:18;12.00;99.90
38428;DHT22;24211;49.980;19.776;2022-09-13T01:47:05;12.00;99.90
38428;DHT22;24211;49.980;19.776;2022-09-13T01:52:53;11.90;99.90
38428;DHT22;24211;49.980;19.776;2022-09-13T01:58:48;11.90;99.90
38428;DHT22;24211;49.980;19.776;2022-09-13T02:01:30;11.80;99.90
38428;DHT22;24211;49.980;19.776;2022-09-13T02:04:14;11.80;99.90
38428;DHT22;24211;49.980;19.776;2022-09-13T02:09:33;11.70;99.90
38428;DHT22;24211;49.980;19.776;2022-09-13T02:12:13;11.70;99.90
38428;DHT22;24211;49.980;19.776;2022-09-13T02:14:50;11.70;99.90
38428;DHT22;24211;49.980;19.776;2022-09-13T02:17:27;11.70;99.90
38428;DHT22;24211;49.980;19.776;2022-09-13T02:20:07;11.60;99.90
38428;DHT22;24211;49.980;19.776;2022-09-13T02:22:44;11.60;99.90
38428;DHT22;24211;49.980;19.776;2022-09-13T02:25:18;11.60;99.90
38428;DHT22;24211;49.980;19.776;2022-09-13T02:27:51;11.50;99.90
38428;DHT22;24211;49.980;19.776;2022-09-13T02:30:24;11.50;99.90
38428;DHT22;24211;49.980;19.776;2022-09-13T02:32:57;11.50;99.90
38428;DHT22;24211;49.980;19.776;2022-09-13T02:35:34;11.50;99.90
38428;DHT22;24211;49.980;19.776;2022-09-13T02:38:12;11.50;99.90
38428;DHT22;24211;49.980;19.776;2022-09-13T02:40:59;11.50;99.90
38428;DHT22;24211;49.980;19.776;2022-09-13T02:43:41;11.40;99.90
38428;DHT22;24211;49.980;19.776;2022-09-13T02:46:50;11.40;99.90
38428;DHT22;24211;49.980;19.776;2022-09-13T02:55:04;11.30;99.90
38428;DHT22;24211;49.980;19.776;2022-09-13T03:00:35;11.30;99.90
38428;DHT22;24211;49.980;19.776;2022-09-13T03:03:05;11.20;99.90
38428;DHT22;24211;49.980;19.776;2022-09-13T03:05:35;11.20;99.90
38428;DHT22;24211;49.980;19.776;2022-09-13T03:08:03;11.30;99.90
38428;DHT22;24211;49.980;19.776;2022-09-13T03:13:48;11.20;99.90
38428;DHT22;24211;49.980;19.776;2022-09-13T03:20:29;11.20;99.90
38428;DHT22;24211;49.980;19.776;2022-09-13T03:29:26;11.20;99.90
38428;DHT22;24211;49.980;19.776;2022-09-13T03:32:15;11.10;99.90
38428;DHT22;24211;49.980;19.776;2022-09-13T03:40:55;11.10;99.90
38428;DHT22;24211;49.980;19.776;2022-09-13T03:43:51;11.00;99.90
38428;DHT22;24211;49.980;19.776;2022-09-13T03:49:06;11.00;99.90
38428;DHT22;24211;49.980;19.776;2022-09-13T03:51:37;10.90;99.90
38428;DHT22;24211;49.980;19.776;2022-09-13T03:54:11;10.90;99.90
38428;DHT22;24211;49.980;19.776;2022-09-13T03:56:45;10.90;99.90
38428;DHT22;24211;49.980;19.776;2022-09-13T03:59:37;10.90;99.90
38428;DHT22;24211;49.980;19.776;2022-09-13T04:02:07;10.90;99.90
38428;DHT22;24211;49.980;19.776;2022-09-13T04:04:41;10.80;99.90
38428;DHT22;24211;49.980;19.776;2022-09-13T04:07:12;10.80;99.90
38428;DHT22;24211;49.980;19.776;2022-09-13T04:09:43;10.80;99.90
38428;DHT22;24211;49.980;19.776;2022-09-13T04:12:13;10.80;99.90
38428;DHT22;24211;49.980;19.776;2022-09-13T04:14:43;10.70;99.90
38428;DHT22;24211;49.980;19.776;2022-09-13T04:17:11;10.70;99.90
38428;DHT22;24211;49.980;19.776;2022-09-13T04:19:39;10.70;99.90
38428;DHT22;24211;49.980;19.776;2022-09-13T04:22:07;10.60;99.90
38428;DHT22;24211;49.980;19.776;2022-09-13T04:24:35;10.60;99.90
38428;DHT22;24211;49.980;19.776;2022-09-13T04:27:02;10.60;99.90
38428;DHT22;24211;49.980;19.776;2022-09-13T04:29:29;10.60;99.90
38428;DHT22;24211;49.980;19.776;2022-09-13T04:31:59;10.60;99.90
38428;DHT22;24211;49.980;19.776;2022-09-13T04:34:27;10.50;99.90
38428;DHT22;24211;49.980;19.776;2022-09-13T04:36:54;10.50;99.90
38428;DHT22;24211;49.980;19.776;2022-09-13T04:39:21;10.50;99.90
38428;DHT22;24211;49.980;19.776;2022-09-13T04:41:50;10.50;99.90
38428;DHT22;24211;49.980;19.776;2022-09-13T04:44:21;10.50;99.90
38428;DHT22;24211;49.980;19.776;2022-09-13T04:46:51;10.50;99.90
38428;DHT22;24211;49.980;19.776;2022-09-13T04:49:18;10.50;99.90
38428;DHT22;24211;49.980;19.776;2022-09-13T04:51:46;10.50;99.90
38428;DHT22;24211;49.980;19.776;2022-09-13T04:54:14;10.50;99.90
38428;DHT22;24211;49.980;19.776;2022-09-13T04:56:43;10.50;99.90
38428;DHT22;24211;49.980;19.776;2022-09-13T04:59:11;10.50;99.90
38428;DHT22;24211;49.980;19.776;2022-09-13T05:01:38;10.50;99.90
38428;DHT22;24211;49.980;19.776;2022-09-13T05:04:07;10.50;99.90
38428;DHT22;24211;49.980;19.776;2022-09-13T05:06:35;10.60;99.90
38428;DHT22;24211;49.980;19.776;2022-09-13T05:09:03;10.60;99.90
38428;DHT22;24211;49.980;19.776;2022-09-13T05:11:32;10.60;99.90
38428;DHT22;24211;49.980;19.776;2022-09-13T05:13:59;10.60;99.90
38428;DHT22;24211;49.980;19.776;2022-09-13T05:16:31;10.70;99.90
38428;DHT22;24211;49.980;19.776;2022-09-13T05:18:59;10.70;99.90
38428;DHT22;24211;49.980;19.776;2022-09-13T05:21:29;10.80;99.90
38428;DHT22;24211;49.980;19.776;2022-09-13T05:23:57;10.90;99.90
38428;DHT22;24211;49.980;19.776;2022-09-13T05:26:27;11.00;99.90
38428;DHT22;24211;49.980;19.776;2022-09-13T05:28:59;11.10;99.90
38428;DHT22;24211;49.980;19.776;2022-09-13T05:31:33;11.10;99.90
38428;DHT22;24211;49.980;19.776;2022-09-13T05:34:06;11.20;99.90
38428;DHT22;24211;49.980;19.776;2022-09-13T05:36:39;11.30;99.90
38428;DHT22;24211;49.980;19.776;2022-09-13T05:39:11;11.40;99.90
38428;DHT22;24211;49.980;19.776;2022-09-13T05:42:01;11.40;99.90
38428;DHT22;24211;49.980;19.776;2022-09-13T05:44:28;11.50;99.90
38428;DHT22;24211;49.980;19.776;2022-09-13T05:46:56;11.60;99.90
38428;DHT22;24211;49.980;19.776;2022-09-13T05:49:23;11.70;99.90
38428;DHT22;24211;49.980;19.776;2022-09-13T05:51:50;11.80;99.90
38428;DHT22;24211;49.980;19.776;2022-09-13T05:54:18;11.90;99.90
38428;DHT22;24211;49.980;19.776;2022-09-13T05:56:45;12.00;99.90
38428;DHT22;24211;49.980;19.776;2022-09-13T05:59:13;12.10;99.90
38428;DHT22;24211;49.980;19.776;2022-09-13T06:01:41;12.10;99.90
38428;DHT22;24211;49.980;19.776;2022-09-13T06:04:08;12.20;99.90
38428;DHT22;24211;49.980;19.776;2022-09-13T06:06:38;12.30;99.90
38428;DHT22;24211;49.980;19.776;2022-09-13T06:09:05;12.40;99.90
38428;DHT22;24211;49.980;19.776;2022-09-13T06:11:34;12.50;99.90
38428;DHT22;24211;49.980;19.776;2022-09-13T06:14:02;12.60;99.90
38428;DHT22;24211;49.980;19.776;2022-09-13T06:16:30;12.70;99.90
38428;DHT22;24211;49.980;19.776;2022-09-13T06:18:59;12.80;99.90
38428;DHT22;24211;49.980;19.776;2022-09-13T06:21:27;12.90;99.90
38428;DHT22;24211;49.980;19.776;2022-09-13T06:23:56;12.90;99.90
38428;DHT22;24211;49.980;19.776;2022-09-13T06:26:25;13.00;99.90
38428;DHT22;24211;49.980;19.776;2022-09-13T06:29:10;13.10;99.90
38428;DHT22;24211;49.980;19.776;2022-09-13T06:31:37;13.20;99.90
38428;DHT22;24211;49.980;19.776;2022-09-13T06:34:10;13.30;99.90
38428;DHT22;24211;49.980;19.776;2022-09-13T06:36:41;13.50;99.90
38428;DHT22;24211;49.980;19.776;2022-09-13T06:39:09;13.60;99.90
38428;DHT22;24211;49.980;19.776;2022-09-13T06:41:36;13.80;99.90
38428;DHT22;24211;49.980;19.776;2022-09-13T06:44:04;13.90;99.90
38428;DHT22;24211;49.980;19.776;2022-09-13T06:46:33;14.00;99.90
38428;DHT22;24211;49.980;19.776;2022-09-13T06:49:06;14.20;99.90
38428;DHT22;24211;49.980;19.776;2022-09-13T06:51:36;14.40;99.90
38428;DHT22;24211;49.980;19.776;2022-09-13T06:54:04;14.50;99.90
38428;DHT22;24211;49.980;19.776;2022-09-13T06:56:33;14.70;99.90
38428;DHT22;24211;49.980;19.776;2022-09-13T06:59:05;15.00;99.90
38428;DHT22;24211;49.980;19.776;2022-09-13T07:01:41;15.20;99.90
38428;DHT22;24211;49.980;19.776;2022-09-13T07:04:13;15.30;99.90
38428;DHT22;24211;49.980;19.776;2022-09-13T07:06:44;15.50;99.90
38428;DHT22;24211;49.980;19.776;2022-09-13T07:09:19;15.70;99.90
38428;DHT22;24211;49.980;19.776;2022-09-13T07:11:52;15.90;99.90
38428;DHT22;24211;49.980;19.776;2022-09-13T07:14:23;16.10;99.90
38428;DHT22;24211;49.980;19.776;2022-09-13T07:16:54;16.30;99.90
38428;DHT22;24211;49.980;19.776;2022-09-13T07:19:23;16.60;99.90
38428;DHT22;24211;49.980;19.776;2022-09-13T07:21:56;16.90;99.90
38428;DHT22;24211;49.980;19.776;2022-09-13T07:24:24;17.20;99.90
38428;DHT22;24211;49.980;19.776;2022-09-13T07:26:51;17.30;99.90
38428;DHT22;24211;49.980;19.776;2022-09-13T07:29:21;17.50;99.90
38428;DHT22;24211;49.980;19.776;2022-09-13T07:31:51;17.90;99.90
38428;DHT22;24211;49.980;19.776;2022-09-13T07:34:22;18.30;99.90
38428;DHT22;24211;49.980;19.776;2022-09-13T07:36:51;18.70;99.90
38428;DHT22;24211;49.980;19.776;2022-09-13T07:39:19;18.90;99.90
38428;DHT22;24211;49.980;19.776;2022-09-13T07:41:50;18.90;99.90
38428;DHT22;24211;49.980;19.776;2022-09-13T07:44:17;19.00;99.90
38428;DHT22;24211;49.980;19.776;2022-09-13T07:46:45;19.20;99.90
38428;DHT22;24211;49.980;19.776;2022-09-13T07:49:16;19.20;99.90
38428;DHT22;24211;49.980;19.776;2022-09-13T07:51:44;19.30;99.90
38428;DHT22;24211;49.980;19.776;2022-09-13T07:54:15;19.40;99.90
38428;DHT22;24211;49.980;19.776;2022-09-13T07:56:45;19.50;99.90
38428;DHT22;24211;49.980;19.776;2022-09-13T07:59:15;19.70;99.90
38428;DHT22;24211;49.980;19.776;2022-09-13T08:01:45;19.90;99.90
38428;DHT22;24211;49.980;19.776;2022-09-13T08:04:21;20.20;99.90
38428;DHT22;24211;49.980;19.776;2022-09-13T08:06:50;20.40;99.90
38428;DHT22;24211;49.980;19.776;2022-09-13T08:09:18;20.50;99.90
38428;DHT22;24211;49.980;19.776;2022-09-13T08:11:48;20.70;99.90
38428;DHT22;24211;49.980;19.776;2022-09-13T08:14:21;20.70;99.90
38428;DHT22;24211;49.980;19.776;2022-09-13T08:16:50;20.80;99.90
38428;DHT22;24211;49.980;19.776;2022-09-13T08:19:21;20.80;99.90
38428;DHT22;24211;49.980;19.776;2022-09-13T08:21:48;21.00;99.90
38428;DHT22;24211;49.980;19.776;2022-09-13T08:24:18;21.10;99.90
38428;DHT22;24211;49.980;19.776;2022-09-13T08:26:52;21.40;99.90
38428;DHT22;24211;49.980;19.776;2022-09-13T08:29:20;21.50;99.90
38428;DHT22;24211;49.980;19.776;2022-09-13T08:31:50;21.50;99.90
38428;DHT22;24211;49.980;19.776;2022-09-13T08:34:17;21.40;99.90
38428;DHT22;24211;49.980;19.776;2022-09-13T08:36:47;21.50;99.90
38428;DHT22;24211;49.980;19.776;2022-09-13T08:39:14;21.50;99.90
38428;DHT22;24211;49.980;19.776;2022-09-13T08:47:20;22.20;99.90
38428;DHT22;24211;49.980;19.776;2022-09-13T08:50:06;22.20;99.90
38428;DHT22;24211;49.980;19.776;2022-09-13T08:56:16;22.80;99.90
38428;DHT22;24211;49.980;19.776;2022-09-13T09:01:37;23.10;99.00
38428;DHT22;24211;49.980;19.776;2022-09-13T09:04:41;23.00;99.10
38428;DHT22;24211;49.980;19.776;2022-09-13T09:07:20;23.10;98.90
38428;DHT22;24211;49.980;19.776;2022-09-13T09:09:55;23.20;98.80
38428;DHT22;24211;49.980;19.776;2022-09-13T09:12:31;23.30;98.70
38428;DHT22;24211;49.980;19.776;2022-09-13T09:15:20;23.40;98.20
38428;DHT22;24211;49.980;19.776;2022-09-13T09:18:51;23.50;98.40
38428;DHT22;24211;49.980;19.776;2022-09-13T09:20:59;23.70;98.40
38428;DHT22;24211;49.980;19.776;2022-09-13T09:23:51;23.80;98.30
38428;DHT22;24211;49.980;19.776;2022-09-13T09:26:24;23.80;98.10
38428;DHT22;24211;49.980;19.776;2022-09-13T09:29:14;23.90;98.10
38428;DHT22;24211;49.980;19.776;2022-09-13T09:37:27;24.40;97.50
38428;DHT22;24211;49.980;19.776;2022-09-13T09:40:01;24.70;97.20
38428;DHT22;24211;49.980;19.776;2022-09-13T09:42:41;24.90;96.80
38428;DHT22;24211;49.980;19.776;2022-09-13T09:45:26;25.10;96.60
38428;DHT22;24211;49.980;19.776;2022-09-13T09:48:01;25.20;96.60
38428;DHT22;24211;49.980;19.776;2022-09-13T09:50:38;25.30;96.60
38428;DHT22;24211;49.980;19.776;2022-09-13T09:53:33;25.50;96.30
38428;DHT22;24211;49.980;19.776;2022-09-13T09:56:20;25.70;95.90
38428;DHT22;24211;49.980;19.776;2022-09-13T09:58:53;25.80;95.00
38428;DHT22;24211;49.980;19.776;2022-09-13T10:01:40;25.70;94.70
38428;DHT22;24211;49.980;19.776;2022-09-13T10:06:41;26.00;94.40
38428;DHT22;24211;49.980;19.776;2022-09-13T10:09:17;26.00;93.90
38428;DHT22;24211;49.980;19.776;2022-09-13T10:11:52;25.90;94.80
38428;DHT22;24211;49.980;19.776;2022-09-13T10:14:42;26.00;94.90
38428;DHT22;24211;49.980;19.776;2022-09-13T10:17:21;26.10;94.90
38428;DHT22;24211;49.980;19.776;2022-09-13T10:20:02;26.20;94.90
38428;DHT22;24211;49.980;19.776;2022-09-13T10:22:31;26.30;94.60
38428;DHT22;24211;49.980;19.776;2022-09-13T10:25:22;26.50;93.00
38428;DHT22;24211;49.980;19.776;2022-09-13T10:27:58;26.40;93.50
38428;DHT22;24211;49.980;19.776;2022-09-13T10:30:41;26.50;93.30
38428;DHT22;24211;49.980;19.776;2022-09-13T10:33:30;26.60;93.50
38428;DHT22;24211;49.980;19.776;2022-09-13T10:36:05;26.60;93.80
38428;DHT22;24211;49.980;19.776;2022-09-13T10:39:14;26.60;93.70
38428;DHT22;24211;49.980;19.776;2022-09-13T10:41:54;26.80;92.80
38428;DHT22;24211;49.980;19.776;2022-09-13T10:44:45;26.90;92.90
38428;DHT22;24211;49.980;19.776;2022-09-13T10:47:33;27.00;91.80
38428;DHT22;24211;49.980;19.776;2022-09-13T10:50:31;27.20;91.50
38428;DHT22;24211;49.980;19.776;2022-09-13T10:53:00;27.40;91.50
38428;DHT22;24211;49.980;19.776;2022-09-13T11:10:23;27.90;90.80
38428;DHT22;24211;49.980;19.776;2022-09-13T11:13:10;27.90;90.10
38428;DHT22;24211;49.980;19.776;2022-09-13T11:15:58;28.00;89.90
38428;DHT22;24211;49.980;19.776;2022-09-13T11:19:29;28.00;89.60
38428;DHT22;24211;49.980;19.776;2022-09-13T11:25:02;28.10;89.30
38428;DHT22;24211;49.980;19.776;2022-09-13T11:45:17;28.60;88.70
38428;DHT22;24211;49.980;19.776;2022-09-13T11:48:08;28.70;89.50
38428;DHT22;24211;49.980;19.776;2022-09-13T11:51:39;29.10;86.50
38428;DHT22;24211;49.980;19.776;2022-09-13T11:57:18;29.50;84.60
38428;DHT22;24211;49.980;19.776;2022-09-13T11:59:55;29.40;86.30
38428;DHT22;24211;49.980;19.776;2022-09-13T12:02:46;29.50;86.40
38428;DHT22;24211;49.980;19.776;2022-09-13T12:05:27;29.60;86.60
38428;DHT22;24211;49.980;19.776;2022-09-13T12:08:12;29.60;87.80
38428;DHT22;24211;49.980;19.776;2022-09-13T12:10:57;29.70;88.30
38428;DHT22;24211;49.980;19.776;2022-09-13T12:13:38;30.20;86.10
38428;DHT22;24211;49.980;19.776;2022-09-13T12:16:16;30.60;83.20
38428;DHT22;24211;49.980;19.776;2022-09-13T12:18:54;30.50;82.90
38428;DHT22;24211;49.980;19.776;2022-09-13T12:21:29;30.40;83.80
38428;DHT22;24211;49.980;19.776;2022-09-13T12:24:21;30.30;85.80
38428;DHT22;24211;49.980;19.776;2022-09-13T12:27:05;30.60;83.70
38428;DHT22;24211;49.980;19.776;2022-09-13T12:32:45;31.00;81.80
38428;DHT22;24211;49.980;19.776;2022-09-13T12:35:27;31.00;82.50
38428;DHT22;24211;49.980;19.776;2022-09-13T12:38:54;31.10;81.40
38428;DHT22;24211;49.980;19.776;2022-09-13T12:53:54;31.00;83.20
38428;DHT22;24211;49.980;19.776;2022-09-13T12:59:42;30.70;81.80
38428;DHT22;24211;49.980;19.776;2022-09-13T13:02:36;30.50;82.00
38428;DHT22;24211;49.980;19.776;2022-09-13T13:05:26;30.30;82.60
38428;DHT22;24211;49.980;19.776;2022-09-13T13:08:03;30.00;82.90
38428;DHT22;24211;49.980;19.776;2022-09-13T13:10:41;29.90;82.10
38428;DHT22;24211;49.980;19.776;2022-09-13T13:13:11;29.70;82.20
38428;DHT22;24211;49.980;19.776;2022-09-13T13:23:38;29.00;84.00
38428;DHT22;24211;49.980;19.776;2022-09-13T13:26:10;28.90;83.90
38428;DHT22;24211;49.980;19.776;2022-09-13T13:34:24;28.90;83.30
38428;DHT22;24211;49.980;19.776;2022-09-13T13:36:59;29.00;82.60
38428;DHT22;24211;49.980;19.776;2022-09-13T13:41:57;29.00;82.60
38428;DHT22;24211;49.980;19.776;2022-09-13T13:49:43;29.30;82.40
38428;DHT22;24211;49.980;19.776;2022-09-13T13:57:35;29.50;80.40
38428;DHT22;24211;49.980;19.776;2022-09-13T14:00:24;29.40;80.70
38428;DHT22;24211;49.980;19.776;2022-09-13T14:11:46;29.50;81.90
38428;DHT22;24211;49.980;19.776;2022-09-13T14:17:45;29.50;81.40
38428;DHT22;24211;49.980;19.776;2022-09-13T14:20:34;29.30;82.20
38428;DHT22;24211;49.980;19.776;2022-09-13T14:23:31;29.10;83.20
38428;DHT22;24211;49.980;19.776;2022-09-13T14:25:59;29.00;84.70
38428;DHT22;24211;49.980;19.776;2022-09-13T14:28:28;28.80;84.90
38428;DHT22;24211;49.980;19.776;2022-09-13T14:30:58;28.70;85.60
38428;DHT22;24211;49.980;19.776;2022-09-13T14:33:29;28.60;86.40
38428;DHT22;24211;49.980;19.776;2022-09-13T14:36:18;28.40;86.10
38428;DHT22;24211;49.980;19.776;2022-09-13T14:38:56;28.30;86.50
38428;DHT22;24211;49.980;19.776;2022-09-13T14:41:31;28.20;87.30
38428;DHT22;24211;49.980;19.776;2022-09-13T14:44:18;28.10;87.30
38428;DHT22;24211;49.980;19.776;2022-09-13T14:47:05;28.00;87.40
38428;DHT22;24211;49.980;19.776;2022-09-13T14:49:45;27.80;87.70
38428;DHT22;24211;49.980;19.776;2022-09-13T14:52:27;27.70;87.00
38428;DHT22;24211;49.980;19.776;2022-09-13T14:55:04;27.60;88.00
38428;DHT22;24211;49.980;19.776;2022-09-13T14:57:45;27.50;88.30
38428;DHT22;24211;49.980;19.776;2022-09-13T15:00:19;27.40;88.00
38428;DHT22;24211;49.980;19.776;2022-09-13T15:03:02;27.30;87.90
38428;DHT22;24211;49.980;19.776;2022-09-13T15:05:38;27.30;88.50
38428;DHT22;24211;49.980;19.776;2022-09-13T15:11:00;27.10;88.90
38428;DHT22;24211;49.980;19.776;2022-09-13T15:13:29;27.00;89.20
38428;DHT22;24211;49.980;19.776;2022-09-13T15:15:57;27.00;89.50
38428;DHT22;24211;49.980;19.776;2022-09-13T15:18:29;26.90;90.00
38428;DHT22;24211;49.980;19.776;2022-09-13T15:21:04;26.80;90.20
38428;DHT22;24211;49.980;19.776;2022-09-13T15:23:41;26.70;90.30
38428;DHT22;24211;49.980;19.776;2022-09-13T15:26:23;26.60;90.40
38428;DHT22;24211;49.980;19.776;2022-09-13T15:28:54;26.60;90.50
38428;DHT22;24211;49.980;19.776;2022-09-13T15:36:43;26.30;90.70
38428;DHT22;24211;49.980;19.776;2022-09-13T15:39:18;26.20;90.90
38428;DHT22;24211;49.980;19.776;2022-09-13T15:41:52;26.20;91.00
38428;DHT22;24211;49.980;19.776;2022-09-13T15:44:21;26.10;91.10
38428;DHT22;24211;49.980;19.776;2022-09-13T15:46:54;26.00;91.10
38428;DHT22;24211;49.980;19.776;2022-09-13T15:49:25;25.90;91.20
38428;DHT22;24211;49.980;19.776;2022-09-13T15:52:02;25.90;91.20
38428;DHT22;24211;49.980;19.776;2022-09-13T15:54:41;25.80;91.30
38428;DHT22;24211;49.980;19.776;2022-09-13T15:57:22;25.70;91.40
38428;DHT22;24211;49.980;19.776;2022-09-13T15:59:52;25.70;91.40
38428;DHT22;24211;49.980;19.776;2022-09-13T16:02:27;25.60;91.50
38428;DHT22;24211;49.980;19.776;2022-09-13T16:04:58;25.50;91.40
38428;DHT22;24211;49.980;19.776;2022-09-13T16:07:26;25.40;91.70
38428;DHT22;24211;49.980;19.776;2022-09-13T16:09:53;25.40;91.90
38428;DHT22;24211;49.980;19.776;2022-09-13T16:12:20;25.30;91.80
38428;DHT22;24211;49.980;19.776;2022-09-13T16:14:50;25.30;91.80
38428;DHT22;24211;49.980;19.776;2022-09-13T16:17:24;25.20;92.00
38428;DHT22;24211;49.980;19.776;2022-09-13T16:19:53;25.10;92.00
38428;DHT22;24211;49.980;19.776;2022-09-13T16:22:21;25.00;92.00
38428;DHT22;24211;49.980;19.776;2022-09-13T16:24:49;25.00;92.00
38428;DHT22;24211;49.980;19.776;2022-09-13T16:27:18;24.90;92.10
38428;DHT22;24211;49.980;19.776;2022-09-13T16:29:46;24.90;92.20
38428;DHT22;24211;49.980;19.776;2022-09-13T16:32:13;24.80;92.20
38428;DHT22;24211;49.980;19.776;2022-09-13T16:34:41;24.80;92.30
38428;DHT22;24211;49.980;19.776;2022-09-13T16:37:18;24.70;92.30
38428;DHT22;24211;49.980;19.776;2022-09-13T16:39:46;24.70;92.30
38428;DHT22;24211;49.980;19.776;2022-09-13T16:42:14;24.60;92.40
38428;DHT22;24211;49.980;19.776;2022-09-13T16:44:43;24.60;92.70
38428;DHT22;24211;49.980;19.776;2022-09-13T16:47:10;24.50;92.50
38428;DHT22;24211;49.980;19.776;2022-09-13T16:49:37;24.40;92.60
38428;DHT22;24211;49.980;19.776;2022-09-13T16:52:05;24.40;92.60
38428;DHT22;24211;49.980;19.776;2022-09-13T16:54:33;24.30;92.60
38428;DHT22;24211;49.980;19.776;2022-09-13T16:57:06;24.30;92.70
38428;DHT22;24211;49.980;19.776;2022-09-13T16:59:33;24.20;92.70
38428;DHT22;24211;49.980;19.776;2022-09-13T17:02:02;24.20;92.80
38428;DHT22;24211;49.980;19.776;2022-09-13T17:04:30;24.10;92.80
38428;DHT22;24211;49.980;19.776;2022-09-13T17:06:57;24.00;93.20
38428;DHT22;24211;49.980;19.776;2022-09-13T17:09:24;24.00;92.90
38428;DHT22;24211;49.980;19.776;2022-09-13T17:11:53;24.00;93.00
38428;DHT22;24211;49.980;19.776;2022-09-13T17:14:20;23.90;93.10
38428;DHT22;24211;49.980;19.776;2022-09-13T17:16:53;23.80;93.00
38428;DHT22;24211;49.980;19.776;2022-09-13T17:19:25;23.70;93.10
38428;DHT22;24211;49.980;19.776;2022-09-13T17:21:56;23.70;93.20
38428;DHT22;24211;49.980;19.776;2022-09-13T17:24:24;23.70;93.30
38428;DHT22;24211;49.980;19.776;2022-09-13T17:26:54;23.60;93.40
38428;DHT22;24211;49.980;19.776;2022-09-13T17:29:24;23.60;93.40
38428;DHT22;24211;49.980;19.776;2022-09-13T17:31:57;23.50;93.40
38428;DHT22;24211;49.980;19.776;2022-09-13T17:34:26;23.40;93.50
38428;DHT22;24211;49.980;19.776;2022-09-13T17:36:54;23.40;93.60
38428;DHT22;24211;49.980;19.776;2022-09-13T17:39:21;23.30;93.60
38428;DHT22;24211;49.980;19.776;2022-09-13T17:41:48;23.30;93.70
38428;DHT22;24211;49.980;19.776;2022-09-13T17:44:18;23.20;93.70
38428;DHT22;24211;49.980;19.776;2022-09-13T17:46:45;23.10;93.80
38428;DHT22;24211;49.980;19.776;2022-09-13T17:49:12;23.10;93.80
38428;DHT22;24211;49.980;19.776;2022-09-13T17:51:39;23.10;93.80
38428;DHT22;24211;49.980;19.776;2022-09-13T17:54:08;23.00;93.90
38428;DHT22;24211;49.980;19.776;2022-09-13T17:56:40;23.00;94.00
38428;DHT22;24211;49.980;19.776;2022-09-13T18:01:44;22.90;94.10
38428;DHT22;24211;49.980;19.776;2022-09-13T18:04:18;22.80;94.10
38428;DHT22;24211;49.980;19.776;2022-09-13T18:06:51;22.70;94.20
38428;DHT22;24211;49.980;19.776;2022-09-13T18:09:19;22.70;94.30
38428;DHT22;24211;49.980;19.776;2022-09-13T18:11:49;22.70;94.20
38428;DHT22;24211;49.980;19.776;2022-09-13T18:14:17;22.70;94.30
38428;DHT22;24211;49.980;19.776;2022-09-13T18:16:45;22.60;94.40
38428;DHT22;24211;49.980;19.776;2022-09-13T18:19:15;22.60;94.40
38428;DHT22;24211;49.980;19.776;2022-09-13T18:21:42;22.50;94.40
38428;DHT22;24211;49.980;19.776;2022-09-13T18:24:09;22.50;94.40
38428;DHT22;24211;49.980;19.776;2022-09-13T18:26:37;22.40;94.50
38428;DHT22;24211;49.980;19.776;2022-09-13T18:29:08;22.40;94.60
38428;DHT22;24211;49.980;19.776;2022-09-13T18:31:38;22.30;94.60
38428;DHT22;24211;49.980;19.776;2022-09-13T18:34:11;22.30;94.70
38428;DHT22;24211;49.980;19.776;2022-09-13T18:36:40;22.30;94.70
38428;DHT22;24211;49.980;19.776;2022-09-13T18:39:14;22.20;94.70
38428;DHT22;24211;49.980;19.776;2022-09-13T18:41:46;22.20;94.80
38428;DHT22;24211;49.980;19.776;2022-09-13T18:44:15;22.10;94.70
38428;DHT22;24211;49.980;19.776;2022-09-13T18:46:43;22.10;94.80
38428;DHT22;24211;49.980;19.776;2022-09-13T18:49:12;22.00;94.80
38428;DHT22;24211;49.980;19.776;2022-09-13T18:51:42;21.90;94.80
38428;DHT22;24211;49.980;19.776;2022-09-13T18:54:16;21.90;94.80
38428;DHT22;24211;49.980;19.776;2022-09-13T18:56:45;21.90;94.90
38428;DHT22;24211;49.980;19.776;2022-09-13T18:59:13;21.80;94.90
38428;DHT22;24211;49.980;19.776;2022-09-13T19:01:42;21.70;94.90
38428;DHT22;24211;49.980;19.776;2022-09-13T19:04:18;21.70;95.00